Time;durP1;ratioP1;P1;durP2;ratioP2;P2;SDS_P1;SDS_P2;PMS_P1;PMS_P2;Temp;Humidity;BMP_temperature;BMP_pressure;BME280_temperature;BME280_humidity;BME280_pressure;Samples;Min_cycle;Max_cycle;Signal;HPM_P1;HPM_P2
2022/02/21 00:01:00;;;;;;;;;;;;;;;3.56;100.00;97018.94;5074442;28;19921;-76
2022/02/21 00:03:30;;;;;;;;;;;;;;;3.72;100.00;97032.81;5075802;28;19928;-76
2022/02/21 00:05:57;;;;;;;;;;;;;;;3.74;100.00;97027.66;5078444;28;19924;-76
2022/02/21 00:08:24;;;;;;;;;;;;;;;3.89;100.00;97006.81;5075234;28;19920;-77
2022/02/21 00:10:51;;;;;;;;;;;;;;;3.85;100.00;96992.28;5090897;28;20416;-77
2022/02/21 00:13:18;;;;;;;;;;;;;;;3.79;100.00;96996.00;5094075;28;20366;-76
2022/02/21 00:15:45;;;;;;;;;;;;;;;3.53;100.00;97008.75;5093502;28;19920;-76
2022/02/21 00:18:13;;;;;;;;;;;;;;;3.58;100.00;97049.69;5088271;28;20009;-77
2022/02/21 00:20:40;;;;;;;;;;;;;;;3.29;100.00;97035.66;5077806;28;19920;-76
2022/02/21 00:23:08;;;;;;;;;;;;;;;3.48;100.00;97039.66;5073741;28;19921;-77
2022/02/21 00:25:35;;;;;;;;;;;;;;;3.41;100.00;97006.66;5061472;28;19983;-76
2022/02/21 00:28:02;;;;;;;;;;;;;;;3.49;100.00;97075.09;5054864;28;19991;-77
2022/02/21 00:30:30;;;;;;;;;;;;;;;3.43;100.00;97076.03;5086022;28;19920;-77
2022/02/21 00:32:57;;;;;;;;;;;;;;;3.60;100.00;97072.13;5093929;28;19927;-77
2022/02/21 00:35:24;;;;;;;;;;;;;;;3.68;100.00;97081.84;5084503;28;19927;-77
2022/02/21 00:37:51;;;;;;;;;;;;;;;3.81;100.00;97079.19;5066437;28;20430;-77
2022/02/21 00:40:18;;;;;;;;;;;;;;;3.81;100.00;97071.69;5072969;28;19943;-77
2022/02/21 00:42:46;;;;;;;;;;;;;;;3.91;100.00;97078.97;5054740;28;19928;-77
2022/02/21 00:45:13;;;;;;;;;;;;;;;3.82;100.00;97070.47;5074402;28;20312;-76
2022/02/21 00:47:40;;;;;;;;;;;;;;;3.84;100.00;97084.66;5093562;28;20364;-77
2022/02/21 00:50:08;;;;;;;;;;;;;;;3.85;100.00;97082.69;5093627;28;20006;-77
2022/02/21 00:52:35;;;;;;;;;;;;;;;3.92;100.00;97060.41;5093451;28;19927;-77
2022/02/21 00:55:03;;;;;;;;;;;;;;;3.92;100.00;97090.81;5093157;28;20290;-77
2022/02/21 00:57:30;;;;;;;;;;;;;;;4.04;100.00;97077.13;5071887;28;19943;-76
2022/02/21 00:59:57;;;;;;;;;;;;;;;4.05;100.00;97067.63;5073319;28;20287;-77
2022/02/21 01:02:27;;;;;;;;;;;;;;;4.15;100.00;97055.53;5074218;28;19920;-77
2022/02/21 01:04:55;;;;;;;;;;;;;;;4.14;100.00;97067.03;5073084;28;19920;-77
2022/02/21 01:07:22;;;;;;;;;;;;;;;4.35;100.00;97064.56;5074135;28;20374;-76
2022/02/21 01:09:49;;;;;;;;;;;;;;;4.24;100.00;97071.56;5072843;28;19963;-77
2022/02/21 01:12:16;;;;;;;;;;;;;;;4.42;100.00;97058.09;5074033;28;19927;-77
2022/02/21 01:14:44;;;;;;;;;;;;;;;4.15;100.00;97088.69;5077564;28;20306;-76
2022/02/21 01:17:11;;;;;;;;;;;;;;;4.39;100.00;97073.53;5093168;28;19919;-77
2022/02/21 01:19:38;;;;;;;;;;;;;;;4.50;100.00;97071.31;5094286;28;20527;-77
2022/02/21 01:22:07;;;;;;;;;;;;;;;4.36;100.00;97088.22;5094044;28;19919;-77
2022/02/21 01:24:35;;;;;;;;;;;;;;;4.39;100.00;97076.31;5094106;28;20335;-77
2022/02/21 01:27:03;;;;;;;;;;;;;;;4.35;100.00;97059.03;5092494;28;20493;-77
2022/02/21 01:29:30;;;;;;;;;;;;;;;4.32;100.00;97087.53;5093635;28;20019;-77
2022/02/21 01:31:57;;;;;;;;;;;;;;;4.27;100.00;97088.03;5094150;28;20374;-77
2022/02/21 01:34:25;;;;;;;;;;;;;;;4.43;100.00;97085.31;5092621;28;19927;-77
2022/02/21 01:36:52;;;;;;;;;;;;;;;4.25;100.00;97079.41;5094069;28;19963;-77
2022/02/21 01:39:20;;;;;;;;;;;;;;;4.29;100.00;97071.81;5093056;28;19926;-77
2022/02/21 01:41:47;;;;;;;;;;;;;;;4.31;100.00;97050.06;5092778;28;20022;-77
2022/02/21 01:44:15;;;;;;;;;;;;;;;4.25;100.00;97054.53;5093695;28;19920;-76
2022/02/21 01:46:43;;;;;;;;;;;;;;;4.49;100.00;97058.69;5093915;28;20061;-76
2022/02/21 01:49:11;;;;;;;;;;;;;;;4.46;100.00;97070.63;5093772;28;19946;-77
2022/02/21 01:51:39;;;;;;;;;;;;;;;4.31;100.00;97041.75;5093849;28;19920;-77
2022/02/21 01:54:07;;;;;;;;;;;;;;;4.63;100.00;97052.84;5093766;28;19920;-77
2022/02/21 01:56:35;;;;;;;;;;;;;;;4.42;100.00;97047.81;5093769;28;20027;-77
2022/02/21 01:59:02;;;;;;;;;;;;;;;4.55;100.00;97054.22;5092286;28;19920;-77
2022/02/21 02:01:30;;;;;;;;;;;;;;;4.56;100.00;97041.94;5092597;28;19933;-77
2022/02/21 02:03:58;;;;;;;;;;;;;;;4.54;100.00;97044.38;5092257;28;20386;-77
2022/02/21 02:06:26;;;;;;;;;;;;;;;4.71;100.00;97048.66;5092847;28;20271;-77
2022/02/21 02:08:53;;;;;;;;;;;;;;;4.39;100.00;97045.13;5092415;28;20435;-77
2022/02/21 02:11:20;;;;;;;;;;;;;;;4.42;100.00;97038.75;5092591;28;19920;-77
2022/02/21 02:13:51;;;;;;;;;;;;;;;4.49;100.00;97036.59;5092021;28;20375;-77
2022/02/21 02:16:18;;;;;;;;;;;;;;;4.53;100.00;97014.38;5093644;28;19973;-77
2022/02/21 02:18:47;;;;;;;;;;;;;;;4.65;100.00;97031.03;5093355;28;20356;-77
2022/02/21 02:21:21;;;;;;;;;;;;;;;4.51;100.00;97005.72;5093501;28;20359;-77
2022/02/21 02:23:50;;;;;;;;;;;;;;;4.66;100.00;97018.78;5093680;28;19927;-77
2022/02/21 02:26:17;;;;;;;;;;;;;;;4.62;100.00;97011.78;5093380;28;19920;-77
2022/02/21 02:28:45;;;;;;;;;;;;;;;4.46;100.00;97009.00;5075468;28;19919;-77
2022/02/21 02:31:12;;;;;;;;;;;;;;;4.67;100.00;97014.00;5092130;28;19927;-77
2022/02/21 02:33:39;;;;;;;;;;;;;;;4.83;100.00;97000.94;5092017;28;20348;-77
2022/02/21 02:36:07;;;;;;;;;;;;;;;4.68;100.00;96987.91;5092180;28;19920;-77
2022/02/21 02:38:37;;;;;;;;;;;;;;;4.53;100.00;96953.53;5093471;28;20394;-77
2022/02/21 02:41:08;;;;;;;;;;;;;;;4.67;100.00;96989.91;5097104;28;19965;-77
2022/02/21 02:43:35;;;;;;;;;;;;;;;4.69;100.00;96979.19;5097104;28;20233;-77
2022/02/21 02:46:03;;;;;;;;;;;;;;;4.62;100.00;96979.34;5097124;28;19920;-77
2022/02/21 02:48:31;;;;;;;;;;;;;;;4.64;100.00;96965.09;5097024;28;20426;-78
2022/02/21 02:50:58;;;;;;;;;;;;;;;4.72;100.00;96966.47;5095860;28;20498;-74
2022/02/21 02:53:26;;;;;;;;;;;;;;;4.68;100.00;96955.50;5096704;28;20007;-77
2022/02/21 02:55:53;;;;;;;;;;;;;;;4.66;100.00;96941.34;5095266;28;20266;-77
2022/02/21 02:58:20;;;;;;;;;;;;;;;4.54;100.00;96952.31;5096902;28;19927;-77
2022/02/21 03:00:48;;;;;;;;;;;;;;;4.52;100.00;96947.22;5096964;28;19927;-77
2022/02/21 03:03:15;;;;;;;;;;;;;;;4.40;100.00;96953.47;5095314;28;19924;-77
2022/02/21 03:05:42;;;;;;;;;;;;;;;4.35;100.00;96967.78;5095548;28;19920;-77
2022/02/21 03:08:09;;;;;;;;;;;;;;;4.29;100.00;96961.22;5095170;28;20263;-77
2022/02/21 03:10:38;;;;;;;;;;;;;;;4.30;100.00;96973.84;5096439;28;20390;-77
2022/02/21 03:13:05;;;;;;;;;;;;;;;4.19;100.00;96954.00;5096348;28;20049;-77
2022/02/21 03:15:35;;;;;;;;;;;;;;;4.10;100.00;96936.44;5095338;28;19964;-77
2022/02/21 03:18:02;;;;;;;;;;;;;;;4.30;100.00;96939.91;5095267;28;19920;-77
2022/02/21 03:20:30;;;;;;;;;;;;;;;4.31;100.00;96908.28;5095243;28;20038;-77
2022/02/21 03:22:57;;;;;;;;;;;;;;;4.62;100.00;96923.28;5095185;28;20441;-77
2022/02/21 03:25:24;;;;;;;;;;;;;;;4.72;100.00;96922.22;5078120;28;20369;-78
2022/02/21 03:27:52;;;;;;;;;;;;;;;4.76;100.00;96918.13;5096564;28;19926;-77
2022/02/21 03:30:19;;;;;;;;;;;;;;;4.65;100.00;96920.41;5094825;28;20005;-77
2022/02/21 03:32:46;;;;;;;;;;;;;;;4.60;100.00;96906.34;5096169;28;20057;-77
2022/02/21 03:35:14;;;;;;;;;;;;;;;4.59;100.00;96907.56;5096137;28;19927;-77
2022/02/21 03:37:41;;;;;;;;;;;;;;;4.62;100.00;96901.16;5096114;28;20031;-77
2022/02/21 03:40:08;;;;;;;;;;;;;;;4.63;100.00;96891.63;5094723;28;20307;-78
2022/02/21 03:42:35;;;;;;;;;;;;;;;4.64;100.00;96887.66;5094896;28;19973;-77
2022/02/21 03:45:04;;;;;;;;;;;;;;;4.88;100.00;96897.25;5095918;28;19923;-77
2022/02/21 03:47:31;;;;;;;;;;;;;;;4.98;100.00;96880.34;5094834;28;20337;-78
2022/02/21 03:49:58;;;;;;;;;;;;;;;4.99;100.00;96887.44;5095562;28;19924;-78
2022/02/21 03:52:25;;;;;;;;;;;;;;;5.18;100.00;96867.09;5094105;28;19924;-78
2022/02/21 03:54:53;;;;;;;;;;;;;;;5.22;100.00;96862.25;5094303;28;20012;-78
2022/02/21 03:57:20;;;;;;;;;;;;;;;5.23;100.00;96879.63;5061154;28;20400;-77
2022/02/21 03:59:49;;;;;;;;;;;;;;;5.30;100.00;96863.59;5094542;28;19923;-77
2022/02/21 04:02:16;;;;;;;;;;;;;;;5.19;100.00;96860.38;5077720;28;20275;-77
2022/02/21 04:04:43;;;;;;;;;;;;;;;5.23;100.00;96852.72;5095522;28;19924;-77
2022/02/21 04:07:10;;;;;;;;;;;;;;;5.42;100.00;96857.28;5095648;28;19920;-77
2022/02/21 04:09:38;;;;;;;;;;;;;;;5.26;100.00;96851.84;5095320;28;19920;-78
2022/02/21 04:12:07;;;;;;;;;;;;;;;5.32;100.00;96839.00;5094867;28;19924;-78
2022/02/21 04:14:40;;;;;;;;;;;;;;;5.22;100.00;96817.97;5093563;28;19920;-77
2022/02/21 04:17:08;;;;;;;;;;;;;;;5.36;100.00;96811.97;5095259;28;19920;-77
2022/02/21 04:19:36;;;;;;;;;;;;;;;5.28;100.00;96837.56;5094746;28;19927;-77
2022/02/21 04:22:03;;;;;;;;;;;;;;;5.21;100.00;96794.25;5076818;28;19941;-77
2022/02/21 04:24:30;;;;;;;;;;;;;;;5.35;100.00;96827.06;5093924;28;19920;-77
2022/02/21 04:26:57;;;;;;;;;;;;;;;5.31;100.00;96809.00;5095331;28;19927;-77
2022/02/21 04:29:25;;;;;;;;;;;;;;;5.39;100.00;96811.09;5093952;28;19924;-77
2022/02/21 04:31:52;;;;;;;;;;;;;;;5.44;100.00;96802.25;5095087;28;19920;-77
2022/02/21 04:34:19;;;;;;;;;;;;;;;5.72;100.00;96797.00;5093949;28;20010;-77
2022/02/21 04:36:46;;;;;;;;;;;;;;;5.59;100.00;96781.19;5110759;27;19947;-78
2022/02/21 04:39:14;;;;;;;;;;;;;;;5.56;100.00;96797.91;5095159;28;20406;-78
2022/02/21 04:41:41;;;;;;;;;;;;;;;5.65;100.00;96772.31;5093796;28;19919;-77
2022/02/21 04:44:08;;;;;;;;;;;;;;;5.65;100.00;96783.38;5093723;28;19965;-77
2022/02/21 04:46:36;;;;;;;;;;;;;;;5.67;100.00;96780.94;5094926;28;19924;-77
2022/02/21 04:49:03;;;;;;;;;;;;;;;5.56;100.00;96751.59;5094979;28;19999;-77
2022/02/21 04:51:30;;;;;;;;;;;;;;;5.55;100.00;96772.22;5094861;28;19920;-77
2022/02/21 04:53:58;;;;;;;;;;;;;;;5.45;100.00;96781.63;5093744;28;19919;-77
2022/02/21 04:56:25;;;;;;;;;;;;;;;5.43;100.00;96728.69;5093476;28;19977;-77
2022/02/21 04:58:52;;;;;;;;;;;;;;;5.62;100.00;96773.97;5094549;28;19919;-77
2022/02/21 05:01:19;;;;;;;;;;;;;;;5.55;100.00;96779.75;5094669;28;19927;-77
2022/02/21 05:03:46;;;;;;;;;;;;;;;5.65;100.00;96777.84;5093260;28;19962;-77
2022/02/21 05:06:14;;;;;;;;;;;;;;;5.68;100.00;96755.56;5093509;28;19920;-77
2022/02/21 05:08:42;;;;;;;;;;;;;;;5.63;100.00;96759.66;5094711;28;19919;-77
2022/02/21 05:11:09;;;;;;;;;;;;;;;5.51;100.00;96738.31;5127467;27;20268;-77
2022/02/21 05:13:39;;;;;;;;;;;;;;;5.68;100.00;96754.81;5092983;28;19964;-78
2022/02/21 05:16:08;;;;;;;;;;;;;;;5.81;100.00;96708.44;5093361;28;19972;-77
2022/02/21 05:18:35;;;;;;;;;;;;;;;5.80;100.00;96706.88;5094564;28;19966;-77
2022/02/21 05:21:02;;;;;;;;;;;;;;;5.75;100.00;96724.06;5094387;28;19927;-78
2022/02/21 05:23:30;;;;;;;;;;;;;;;5.76;100.00;96745.00;5081689;28;19987;-78
2022/02/21 05:25:58;;;;;;;;;;;;;;;5.80;100.00;96742.91;5084858;28;19920;-78
2022/02/21 05:28:25;;;;;;;;;;;;;;;5.86;100.00;96755.75;5073924;28;19921;-78
2022/02/21 05:30:54;;;;;;;;;;;;;;;5.76;100.00;96697.91;5094517;28;19919;-78
2022/02/21 05:33:21;;;;;;;;;;;;;;;5.78;100.00;96734.25;5094288;28;20384;-77
2022/02/21 05:35:48;;;;;;;;;;;;;;;5.56;100.00;96714.81;5093049;28;19920;-78
2022/02/21 05:38:15;;;;;;;;;;;;;;;5.49;100.00;96743.53;5094135;28;19930;-77
2022/02/21 05:40:42;;;;;;;;;;;;;;;5.44;100.00;96657.44;5107474;28;20291;-77
2022/02/21 05:43:09;;;;;;;;;;;;;;;5.49;100.00;96710.28;5072748;28;19948;-78
2022/02/21 05:45:36;;;;;;;;;;;;;;;5.66;100.00;96740.59;5073806;28;19920;-78
2022/02/21 05:48:04;;;;;;;;;;;;;;;5.72;100.00;96733.28;5073916;28;19928;-78
2022/02/21 05:50:31;;;;;;;;;;;;;;;5.88;100.00;96719.31;5073773;28;20279;-78
2022/02/21 05:52:58;;;;;;;;;;;;;;;6.03;100.00;96690.63;5073704;28;20348;-78
2022/02/21 05:55:25;;;;;;;;;;;;;;;6.19;100.00;96750.69;5073656;28;19920;-78
2022/02/21 05:57:56;;;;;;;;;;;;;;;6.23;100.00;96762.41;5073763;28;19927;-78
2022/02/21 06:00:23;;;;;;;;;;;;;;;6.18;100.00;96754.69;5073860;28;19921;-78
2022/02/21 06:02:51;;;;;;;;;;;;;;;6.06;100.00;96731.31;5072465;28;19927;-78
2022/02/21 06:05:18;;;;;;;;;;;;;;;6.17;100.00;96764.19;5055643;28;19960;-78
2022/02/21 06:07:45;;;;;;;;;;;;;;;6.22;100.00;96766.41;5073670;28;19921;-78
2022/02/21 06:10:12;;;;;;;;;;;;;;;6.24;100.00;96759.19;5073485;28;19926;-78
2022/02/21 06:12:39;;;;;;;;;;;;;;;6.25;100.00;96782.16;5072176;28;19921;-78
2022/02/21 06:15:07;;;;;;;;;;;;;;;6.43;100.00;96760.09;5076404;28;19927;-78
2022/02/21 06:17:34;;;;;;;;;;;;;;;6.51;100.00;96761.41;5081473;28;19920;-78
2022/02/21 06:20:01;;;;;;;;;;;;;;;6.58;100.00;96733.41;5097607;28;19920;-78
2022/02/21 06:22:29;;;;;;;;;;;;;;;6.47;100.00;96738.56;5096486;28;19927;-78
2022/02/21 06:24:56;;;;;;;;;;;;;;;6.30;100.00;96713.00;5097466;28;19924;-77
2022/02/21 06:27:23;;;;;;;;;;;;;;;6.29;100.00;96728.13;5096513;28;19920;-78
2022/02/21 06:29:50;;;;;;;;;;;;;;;6.30;100.00;96748.31;5097577;28;20010;-78
2022/02/21 06:32:17;;;;;;;;;;;;;;;6.66;100.00;96784.63;5097538;28;19973;-78
2022/02/21 06:34:48;;;;;;;;;;;;;;;6.41;100.00;96730.06;5097201;28;20011;-78
2022/02/21 06:37:15;;;;;;;;;;;;;;;6.28;100.00;96764.63;5097521;28;19920;-78
2022/02/21 06:39:42;;;;;;;;;;;;;;;6.22;100.00;96778.28;5096066;28;19927;-78
2022/02/21 06:42:10;;;;;;;;;;;;;;;6.18;100.00;96677.81;5097287;28;19920;-77
2022/02/21 06:44:38;;;;;;;;;;;;;;;6.26;100.00;96728.22;5097214;28;20376;-78
2022/02/21 06:47:05;;;;;;;;;;;;;;;6.25;100.00;96780.16;5095714;28;20313;-78
2022/02/21 06:49:32;;;;;;;;;;;;;;;6.24;100.00;96786.16;5096050;28;19924;-78
2022/02/21 06:52:00;;;;;;;;;;;;;;;6.35;100.00;96770.69;5095864;28;19982;-78
2022/02/21 06:54:27;;;;;;;;;;;;;;;6.37;100.00;96709.22;5096885;28;19931;-77
2022/02/21 06:56:55;;;;;;;;;;;;;;;6.36;100.00;96788.88;5096958;28;20035;-77
2022/02/21 06:59:22;;;;;;;;;;;;;;;6.45;100.00;96813.91;5096990;28;19970;-77
2022/02/21 07:01:49;;;;;;;;;;;;;;;6.65;100.00;96819.16;5095465;28;20356;-78
2022/02/21 07:04:16;;;;;;;;;;;;;;;6.47;100.00;96799.56;5096789;28;19964;-77
2022/02/21 07:06:43;;;;;;;;;;;;;;;6.30;100.00;96828.72;5095691;28;19928;-77
2022/02/21 07:09:14;;;;;;;;;;;;;;;6.47;100.00;96835.63;5096683;28;20414;-77
2022/02/21 07:11:41;;;;;;;;;;;;;;;6.39;100.00;96878.72;5096855;28;19931;-77
2022/02/21 07:14:08;;;;;;;;;;;;;;;6.50;100.00;96826.41;5095165;28;20302;-77
2022/02/21 07:16:35;;;;;;;;;;;;;;;6.66;100.00;96795.72;5082817;28;19924;-77
2022/02/21 07:19:02;;;;;;;;;;;;;;;6.58;100.00;96827.72;5059686;28;20058;-76
2022/02/21 07:21:29;;;;;;;;;;;;;;;6.65;100.00;96858.00;5056379;28;19932;-77
2022/02/21 07:23:57;;;;;;;;;;;;;;;6.56;100.00;96943.91;5054781;28;19924;-77
2022/02/21 07:26:24;;;;;;;;;;;;;;;6.43;100.00;96871.06;5053270;28;20414;-76
2022/02/21 07:28:51;;;;;;;;;;;;;;;6.50;100.00;96862.47;5055703;28;20019;-76
2022/02/21 07:31:21;;;;;;;;;;;;;;;6.48;100.00;96948.91;5055084;28;19931;-76
2022/02/21 07:33:49;;;;;;;26.65;4.35;;;;;;;6.39;100.00;96928.66;5087155;28;19991;-76
2022/02/21 07:36:16;;;;;;;;;;;;;;;6.38;100.00;96950.06;5053941;28;20400;-77
2022/02/21 07:38:44;;;;;;;;;;;;;;;6.21;100.00;96987.44;5095011;27;19919;-76
2022/02/21 07:41:11;;;;;;;;;;;;;;;6.31;100.00;96999.44;5076305;28;19920;-77
2022/02/21 07:43:38;;;;;;;;;;;;;;;6.21;100.00;97004.09;5075294;28;20014;-76
2022/02/21 07:46:05;;;;;;;;;;;;;;;6.22;100.00;97033.41;5073881;28;19928;-77
2022/02/21 07:48:32;;;;;;;;;;;;;;;6.15;100.00;96999.56;5058142;28;19928;-76
2022/02/21 07:51:00;;;;;;;;;;;;;;;6.32;100.00;97075.84;5055461;28;19920;-77
2022/02/21 07:53:28;;;;;;;;;;;;;;;6.40;100.00;97057.78;5055313;28;19921;-76
2022/02/21 07:55:55;;;;;;;;;;;;;;;6.29;100.00;97062.88;5055023;28;19921;-75
2022/02/21 07:58:24;;;;;;;;;;;;;;;6.25;100.00;97020.63;5055302;28;19928;-76
2022/02/21 08:00:51;;;;;;;;;;;;;;;6.34;100.00;97040.16;5074087;28;19920;-76
2022/02/21 08:03:19;;;;;;;;;;;;;;;6.38;100.00;97101.81;5085325;28;19920;-76
2022/02/21 08:05:46;;;;;;;;;;;;;;;6.79;100.00;97126.69;5074686;28;19924;-77
2022/02/21 08:08:14;;;;;;;;;;;;;;;6.47;100.00;97121.34;5073785;28;19920;-76
2022/02/21 08:10:41;;;;;;;;;;;;;;;6.58;100.00;97136.47;5073919;28;20379;-76
2022/02/21 08:13:08;;;;;;;;;;;;;;;6.51;100.00;97166.44;5073757;28;20002;-75
2022/02/21 08:15:36;;;;;;;;;;;;;;;6.70;100.00;97195.97;5073560;28;19950;-76
2022/02/21 08:18:03;;;;;;;;;;;;;;;7.03;100.00;97169.56;5075074;28;19920;-76
2022/02/21 08:20:30;;;;;;;;;;;;;;;7.01;100.00;97227.53;5040525;28;19924;-76
2022/02/21 08:22:58;;;;;;;;;;;;;;;7.03;100.00;97213.97;5074927;28;20030;-76
2022/02/21 08:25:25;;;;;;;;;;;;;;;7.15;100.00;97216.75;5074844;28;19943;-76
2022/02/21 08:27:52;;;;;;;;;;;;;;;7.22;100.00;97221.31;5073748;28;19920;-76
2022/02/21 08:30:21;;;;;;;;;;;;;;;7.17;100.00;97235.75;5074783;28;19920;-75
2022/02/21 08:32:48;;;;;;;;;;;;;;;7.50;100.00;97252.97;5074676;28;19927;-76
2022/02/21 08:35:16;;;;;;;;;;;;;;;7.48;100.00;97281.22;5074469;28;19921;-76
2022/02/21 08:37:43;;;;;;;;;;;;;;;7.61;100.00;97267.28;5089295;28;19934;-77
2022/02/21 08:40:11;;;;;;;;;;;;;;;7.39;100.00;97237.41;5072248;28;19928;-76
2022/02/21 08:42:39;;;;;;;;;;;;;;;7.53;100.00;97313.97;5057029;28;19974;-77
2022/02/21 08:45:07;;;;;;;;;;;;;;;7.60;100.00;97291.53;5073092;28;19924;-76
2022/02/21 08:47:34;;;;;;;34.47;6.38;;;;;;;7.54;100.00;97320.31;5056310;28;19920;-77
2022/02/21 08:50:04;;;;;;;32.88;6.30;;;;;;;7.42;100.00;97294.09;5072699;28;20372;-76
2022/02/21 08:52:31;;;;;;;;;;;;;;;7.77;100.00;97356.88;5073067;28;20511;-77
2022/02/21 08:54:58;;;;;;;;;;;;;;;7.73;100.00;97375.69;5073198;28;19927;-76
2022/02/21 08:57:27;;;;;;;23.48;5.43;;;;;;;7.47;100.00;97349.09;5073732;28;19943;-75
2022/02/21 08:59:55;;;;;;;;;;;;;;;7.59;100.00;97356.66;5072516;28;20094;-76
2022/02/21 09:02:28;;;;;;;;;;;;;;;7.85;100.00;97374.91;5086087;28;19920;-76
2022/02/21 09:05:16;;;;;;;;;;;;;;;7.73;100.00;97367.34;5064373;28;19928;-77
2022/02/21 09:07:43;;;;;;;40.45;7.28;;;;;;;7.54;100.00;97412.81;5072167;28;19920;-76
2022/02/21 09:10:10;;;;;;;29.98;6.65;;;;;;;7.61;100.00;97376.47;5071866;28;20044;-76
2022/02/21 09:12:38;;;;;;;;;;;;;;;7.71;100.00;97417.03;5072140;28;20502;-77
2022/02/21 09:15:07;;;;;;;;;;;;;;;7.90;100.00;97452.22;5064066;28;20462;-78
2022/02/21 09:17:34;;;;;;;;;;;;;;;7.88;100.00;97429.63;5069330;28;19924;-77
2022/02/21 09:20:01;;;;;;;;;;;;;;;8.10;100.00;97441.66;5065109;28;19924;-78
2022/02/21 09:22:28;;;;;;;;;;;;;;;7.89;100.00;97458.22;5072714;28;19924;-77
2022/02/21 09:24:56;;;;;;;;;;;;;;;7.58;100.00;97444.06;5057429;28;20387;-76
2022/02/21 09:27:23;;;;;;;;;;;;;;;7.84;100.00;97423.41;5092648;28;19929;-76
2022/02/21 09:29:50;;;;;;;;;;;;;;;7.87;100.00;97508.72;5070216;28;20379;-79
2022/02/21 09:32:17;;;;;;;;;;;;;;;8.11;100.00;97537.78;5065484;28;19959;-78
2022/02/21 09:34:45;;;;;;;;;;;;;;;7.86;100.00;97537.72;5079430;28;20314;-78
2022/02/21 09:37:12;;;;;;;;;;;;;;;7.87;100.00;97539.31;5077932;28;19924;-77
2022/02/21 09:39:39;;;;;;;;;;;;;;;7.80;100.00;97539.50;5069146;28;19920;-78
2022/02/21 09:42:06;;;;;;;;;;;;;;;7.76;100.00;97601.97;5069427;28;19924;-78
2022/02/21 09:44:34;;;;;;;;;;;;;;;7.65;100.00;97593.16;5072796;28;20592;-77
2022/02/21 09:47:03;;;;;;;;;;;;;;;7.59;100.00;97506.75;5070253;28;19928;-78
2022/02/21 09:49:30;;;;;;;;;;;;;;;7.48;100.00;97595.22;5078418;28;20826;-78
2022/02/21 09:51:58;;;;;;;;;;;;;;;7.34;100.00;97635.28;5072084;28;19924;-76
2022/02/21 09:54:27;;;;;;;;;;;;;;;7.19;100.00;97677.72;5069891;28;20073;-78
2022/02/21 09:56:55;;;;;;;;;;;;;;;7.24;100.00;97674.41;5069556;28;20304;-77
2022/02/21 09:59:22;;;;;;;;;;;;;;;6.94;100.00;97708.06;5057065;28;19931;-78
2022/02/21 10:01:50;;;;;;;;;;;;;;;6.98;100.00;97689.34;5069799;28;20013;-80
2022/02/21 10:04:24;;;;;;;;;;;;;;;7.00;100.00;97695.22;5068468;28;19929;-80
2022/02/21 10:06:52;;;;;;;;;;;;;;;7.22;100.00;97671.31;5068544;28;20470;-78
2022/02/21 10:09:20;;;;;;;;;;;;;;;7.08;100.00;97727.19;5079482;28;19922;-75
2022/02/21 10:11:48;;;;;;;;;;;;;;;7.45;100.00;97690.56;5089571;28;19948;-77
2022/02/21 10:14:17;;;;;;;;;;;;;;;7.58;100.00;97726.75;5089845;28;20427;-78
2022/02/21 10:16:44;;;;;;;;;;;;;;;7.65;100.00;97726.59;5078816;27;19924;-78
2022/02/21 10:19:13;;;;;;;;;;;;;;;7.50;100.00;97748.41;5064938;28;19921;-77
2022/02/21 10:22:02;;;;;;;;;;;;;;;7.89;100.00;97776.00;5049671;28;20059;-76
2022/02/21 10:24:42;;;;;;;;;;;;;;;8.28;100.00;97767.44;5087906;28;19963;-76
2022/02/21 10:27:16;;;;;;;;;;;;;;;7.94;100.00;97761.56;5089524;28;19920;-75
2022/02/21 10:29:47;;;;;;;;;;;;;;;7.90;100.00;97774.00;5088145;28;19969;-75
2022/02/21 10:32:16;;;;;;;;;;;;;;;8.02;100.00;97790.75;5089331;28;20302;-76
2022/02/21 10:34:45;;;;;;;40.22;5.85;;;;;;;8.01;100.00;97789.19;5074054;28;20275;-78
2022/02/21 10:37:14;;;;;;;;;;;;;;;8.05;100.00;97794.66;5088713;28;20040;-78
2022/02/21 10:39:41;;;;;;;28.35;5.88;;;;;;;8.04;100.00;97798.66;5089248;28;20002;-79
2022/02/21 10:42:09;;;;;;;32.25;7.38;;;;;;;7.79;100.00;97807.63;5088808;28;20567;-79
2022/02/21 10:44:40;;;;;;;16.13;5.00;;;;;;;7.87;100.00;97760.97;5089903;28;20032;-78
2022/02/21 10:47:13;;;;;;;;;;;;;;;8.20;100.00;97862.63;5089950;28;19931;-78
2022/02/21 10:49:51;;;;;;;;;;;;;;;8.15;100.00;97886.19;5089882;28;20050;-75
2022/02/21 10:52:25;;;;;;;31.90;4.45;;;;;;;8.12;100.00;97884.28;5065187;28;19926;-76
2022/02/21 10:54:54;;;;;;;27.60;4.30;;;;;;;8.16;100.00;97862.75;5065188;28;20126;-76
2022/02/21 10:57:28;;;;;;;;;;;;;;;8.15;100.00;97910.47;5076349;28;19924;-76
2022/02/21 10:59:57;;;;;;;19.88;3.63;;;;;;;7.91;100.00;97900.69;5050064;28;20468;-76
2022/02/21 11:02:24;;;;;;;20.92;3.08;;;;;;;8.17;100.00;97921.94;5050873;28;20045;-76
2022/02/21 11:04:55;;;;;;;25.58;4.13;;;;;;;8.18;100.00;97932.63;5052422;28;20079;-76
2022/02/21 11:07:23;;;;;;;229.40;128.70;;;;;;;8.10;100.00;97936.81;5057371;28;20029;-76
2022/02/21 11:09:51;;;;;;;;;;;;;;;7.86;100.00;97890.88;5071349;28;20037;-77
2022/02/21 11:12:22;;;;;;;24.80;4.45;;;;;;;7.85;100.00;97939.38;5072038;28;20010;-77
2022/02/21 11:14:50;;;;;;;;;;;;;;;8.30;100.00;97961.81;5078715;28;20507;-77
2022/02/21 11:17:18;;;;;;;;;;;;;;;8.35;100.00;97969.63;5075788;28;20599;-76
2022/02/21 11:19:46;;;;;;;;;;;;;;;8.19;100.00;97964.81;5066634;28;19942;-76
2022/02/21 11:22:17;;;;;;;18.80;3.90;;;;;;;8.19;100.00;97934.22;5069677;28;19921;-76
2022/02/21 11:24:53;;;;;;;;;;;;;;;8.19;100.00;97972.38;5077410;28;20132;-75
2022/02/21 11:27:32;;;;;;;;;;;;;;;8.08;100.00;98006.00;5091017;28;20009;-75
2022/02/21 11:30:10;;;;;;;;;;;;;;;8.13;100.00;98019.41;5076069;28;20363;-77
2022/02/21 11:32:40;;;;;;;;;;;;;;;8.04;100.00;98049.78;5076103;28;19927;-76
2022/02/21 11:35:11;;;;;;;;;;;;;;;7.98;100.00;98057.06;5072247;28;19927;-83
2022/02/21 11:37:38;;;;;;;;;;;;;;;7.99;100.00;98086.47;5055845;28;19920;-83
2022/02/21 11:40:06;;;;;;;36.28;6.47;;;;;;;7.41;100.00;97948.31;5071209;28;19920;-79
2022/02/21 11:42:49;;;;;;;;;;;;;;;7.83;100.00;98080.84;5073108;28;20051;-83
2022/02/21 11:45:23;;;;;;;;;;;;;;;7.83;100.00;98099.53;5072011;28;19920;-80
2022/02/21 11:47:52;;;;;;;;;;;;;;;7.77;100.00;98095.69;5073018;28;19928;-81
2022/02/21 11:50:19;;;;;;;;;;;;;;;7.61;100.00;98109.50;5071833;28;19978;-80
2022/02/21 11:52:50;;;;;;;;;;;;;;;7.39;100.00;98109.13;5071098;28;19924;-76
2022/02/21 11:55:27;;;;;;;;;;;;;;;7.48;100.00;98122.47;5071145;28;19920;-79
2022/02/21 11:57:57;;;;;;;;;;;;;;;7.45;100.00;98135.22;5072335;28;19927;-78
2022/02/21 12:00:38;;;;;;;;;;;;;;;7.61;100.00;98126.19;5072192;28;20364;-83
2022/02/21 12:03:21;;;;;;;;;;;;;;;7.49;100.00;98162.94;5071761;28;19920;-79
2022/02/21 12:05:50;;;;;;;;;;;;;;;7.50;100.00;98159.75;5072800;28;19927;-79
2022/02/21 12:08:38;;;;;;;;;;;;;;;7.46;100.00;98186.81;5070710;28;20314;-77
2022/02/21 12:11:10;;;;;;;;;;;;;;;7.53;100.00;98191.47;5087645;28;19921;-77
2022/02/21 12:13:57;;;;;;;;;;;;;;;7.54;100.00;98213.28;5071529;28;20310;-77
2022/02/21 12:16:24;;;;;;;;;;;;;;;7.42;100.00;98211.13;5071276;28;19943;-77
2022/02/21 12:19:01;;;;;;;;;;;;;;;7.56;100.00;98207.31;5072119;28;19924;-77
2022/02/21 12:21:33;;;;;;;;;;;;;;;7.23;100.00;98217.38;5071530;28;20050;-76
2022/02/21 12:24:00;;;;;;;;;;;;;;;7.36;100.00;98221.91;5069872;28;19924;-77
2022/02/21 12:26:27;;;;;;;;;;;;;;;7.43;100.00;98215.47;5071277;28;19928;-77
2022/02/21 12:29:07;;;;;;;;;;;;;;;7.38;100.00;98235.38;5070561;28;19920;-77
2022/02/21 12:31:35;;;;;;;;;;;;;;;7.40;100.00;98224.66;5071797;28;19920;-77
2022/02/21 12:34:02;;;;;;;;;;;;;;;7.10;100.00;98214.38;5070929;28;20383;-77
2022/02/21 12:36:36;;;;;;;;;;;;;;;7.28;100.00;98244.69;5070739;28;19974;-77
2022/02/21 12:39:05;;;;;;;;;;;;;;;7.28;100.00;98253.03;5071360;28;20007;-77
2022/02/21 12:41:35;;;;;;;;;;;;;;;7.45;100.00;98256.72;5071447;28;20570;-77
2022/02/21 12:44:03;;;;;;;;;;;;;;;7.26;100.00;98261.00;5070717;28;20348;-77
2022/02/21 12:46:35;;;;;;;;;;;;;;;7.31;100.00;98291.09;5073305;28;19920;-77